Data for 09/08/2015

Time Sea-Level Adjusted Pressure Absolute Pressure Temperature Relative Humidity Dew Point   
(mb) (inHg) (mb) (inHg) (C) (F) (%) (C) (F)
00:05 1023 30.21 853 25.19 8.9 48.1 57 1 33.8
00:10 1023 30.21 853 25.19 8.7 47.7 59 1.1 34.1
00:15 1023 30.21 853 25.19 8.6 47.4 59 1.1 34
00:20 1023 30.21 853 25.19 8.4 47.2 60 1.2 34.1
00:25 1023 30.21 853 25.19 8.5 47.2 57 0.5 32.9
00:30 1023 30.21 853 25.19 8.6 47.5 59 1.2 34.1
00:35 1023 30.21 853 25.19 8.2 46.7 59 0.8 33.4
00:40 1023 30.21 853 25.19 7.5 45.5 61 0.4 32.7
00:45 1023 30.21 853 25.19 7.1 44.8 59 -0.2 31.6
00:50 1023 30.21 852 25.16 7.2 45 59 -0.2 31.7
00:55 1023 30.21 852 25.16 7.3 45.2 60 0 32
01:00 1023 30.21 852 25.16 7.3 45.1 60 0.1 32.2
01:05 1023 30.21 853 25.19 6.9 44.4 63 0.4 32.7
01:10 1023 30.21 853 25.19 6.4 43.6 64 0.2 32.3
01:15 1023 30.21 852 25.16 6.2 43.2 64 -0.1 31.8
01:20 1023 30.21 852 25.16 6.1 43 64 -0.1 31.8
01:25 1023 30.21 852 25.16 5.9 42.5 67 0.2 32.4
01:30 1023 30.21 852 25.16 5.3 41.6 71 0.4 32.8
01:35 1023 30.21 852 25.16 5.1 41.2 71 0.4 32.7
01:40 1023 30.21 852 25.16 4.9 40.7 72 0.3 32.6
01:45 1023 30.21 853 25.19 4.6 40.4 72 0.1 32.1
01:50 1023 30.21 853 25.19 4.6 40.3 71 -0.1 31.8
01:55 1023 30.21 852 25.16 4.6 40.2 71 -0.2 31.7
02:00 1023 30.21 853 25.19 4.6 40.2 71 -0.2 31.6
02:05 1023 30.21 853 25.19 4.5 40.2 71 -0.3 31.5
02:10 1023 30.21 853 25.19 4.6 40.2 72 -0.1 31.8
02:15 1023 30.21 853 25.19 4.4 40 72 -0.2 31.7
02:20 1023 30.21 853 25.19 4.4 39.9 72 -0.2 31.6
02:25 1023 30.21 853 25.19 4.2 39.6 72 -0.3 31.4
02:30 1023 30.21 853 25.19 4.2 39.6 72 -0.4 31.2
02:35 1023 30.21 853 25.19 4.3 39.8 71 -0.5 31.1
02:40 1023 30.21 853 25.19 4.4 40 70 -0.5 31.1
02:45 1023 30.21 853 25.19 4.6 40.3 69 -0.5 31
02:50 1023 30.21 853 25.19 4.6 40.2 70 -0.4 31.2
02:55 1023 30.21 853 25.19 4.4 39.9 70 -0.5 31.1
03:00 1023 30.21 853 25.19 4.4 39.8 70 -0.6 30.9
03:05 1023 30.21 853 25.19 4.4 40 70 -0.6 31
03:10 1023 30.21 853 25.19 4.4 40 69 -0.7 30.7
03:15 1023 30.21 853 25.19 4.6 40.2 68 -0.7 30.7
03:20 1023 30.21 852 25.16 4.7 40.4 68 -0.8 30.6
03:25 1023 30.21 852 25.16 4.6 40.3 69 -0.7 30.8
03:30 1023 30.21 852 25.16 4.7 40.4 67 -0.9 30.4
03:35 1023 30.21 852 25.16 4.8 40.6 67 -0.8 30.6
03:40 1023 30.21 852 25.16 4.8 40.7 66 -1 30.3
03:45 1023 30.21 852 25.16 4.9 40.7 68 -0.6 30.9
03:50 1023 30.21 852 25.16 4.5 40.1 69 -0.7 30.8
03:55 1023 30.21 852 25.16 4.4 40 69 -0.7 30.7
04:00 1023 30.21 852 25.16 4.5 40.1 69 -0.8 30.6
04:05 1023 30.21 852 25.16 4.5 40.2 68 -0.9 30.4
04:10 1023 30.21 852 25.16 4.7 40.4 68 -0.8 30.6
04:15 1023 30.21 852 25.16 4.5 40.1 68 -0.8 30.6
04:20 1023 30.21 853 25.19 4.5 40.1 68 -0.9 30.4
04:25 1023 30.21 853 25.19 4.5 40.2 68 -0.8 30.5
04:30 1023 30.21 853 25.19 4.5 40.2 68 -0.8 30.5
04:35 1023 30.21 853 25.19 4.5 40.1 68 -0.8 30.5
04:40 1023 30.21 853 25.19 4.5 40.1 67 -1 30.2
04:45 1023 30.21 853 25.19 4.8 40.6 66 -1 30.3
04:50 1023 30.21 853 25.19 4.6 40.3 68 -0.9 30.5
04:55 1023 30.21 853 25.19 4.4 40 68 -1 30.2
05:00 1024 30.24 853 25.19 4.2 39.6 70 -0.8 30.5
05:05 1024 30.24 853 25.19 3.8 38.8 73 -0.7 30.8
05:10 1023 30.21 853 25.19 3.4 38.1 73 -0.9 30.3
05:15 1023 30.21 853 25.19 3.1 37.6 75 -0.9 30.4
05:20 1023 30.21 853 25.19 3 37.4 75 -1 30.2
05:25 1024 30.24 853 25.19 2.9 37.1 76 -0.9 30.3
05:30 1024 30.24 853 25.19 2.7 36.8 77 -1 30.2
05:35 1023 30.21 853 25.19 3.1 37.5 72 -1.5 29.2
05:40 1024 30.24 853 25.19 3.8 38.9 70 -1.1 30.1
05:45 1024 30.24 853 25.19 4 39.2 69 -1.1 30
05:50 1024 30.24 853 25.19 3.8 38.9 70 -1.1 30
05:55 1024 30.24 853 25.19 3.6 38.5 71 -1.1 30
06:00 1024 30.24 853 25.19 3.7 38.7 70 -1.3 29.6
06:05 1024 30.24 853 25.19 3.9 39.1 69 -1.2 29.8
06:10 1024 30.24 853 25.19 3.9 39.1 69 -1.3 29.7
06:15 1024 30.24 853 25.19 4 39.1 69 -1.3 29.7
06:20 1024 30.24 853 25.19 4.1 39.3 69 -1.1 29.9
06:25 1024 30.24 853 25.19 3.9 39.1 70 -1.1 30
06:30 1024 30.24 853 25.19 3.7 38.6 71 -1.1 30
06:35 1024 30.24 853 25.19 3.5 38.4 71 -1.2 29.8
06:40 1024 30.24 853 25.19 3.6 38.4 71 -1.3 29.7
06:45 1024 30.24 853 25.19 3.7 38.6 71 -1.2 29.9
06:50 1024 30.24 853 25.19 3.6 38.5 71 -1.1 30
06:55 1024 30.24 853 25.19 3.7 38.6 70 -1.2 29.8
07:00 1024 30.24 853 25.19 4 39.3 68 -1.3 29.6
07:05 1024 30.24 853 25.19 4.5 40.1 66 -1.3 29.7
07:10 1024 30.24 853 25.19 5 41 64 -1.1 30
07:15 1024 30.24 853 25.19 5.6 42.1 63 -0.9 30.4
07:20 1024 30.24 853 25.19 6.2 43.1 61 -0.9 30.4
07:25 1024 30.24 853 25.19 6.8 44.2 58 -0.8 30.6
07:30 1024 30.24 853 25.19 7.2 44.9 57 -0.6 30.9
07:35 1024 30.24 853 25.19 7.4 45.2 58 -0.5 31.2
07:40 1024 30.24 853 25.19 7.7 45.8 55 -0.8 30.5
07:45 1024 30.24 853 25.19 7.9 46.3 55 -0.6 30.9
07:50 1024 30.24 853 25.19 8.5 47.4 54 -0.3 31.4
07:55 1024 30.24 853 25.19 8.9 48.1 53 -0.2 31.7
08:00 1024 30.24 853 25.19 9.5 49.1 50 -0.5 31.1
08:05 1024 30.24 853 25.19 9.8 49.6 49 -0.3 31.5
08:10 1024 30.24 853 25.19 10.1 50.3 48 -0.5 31.2
08:15 1024 30.24 853 25.19 10.7 51.2 46 -0.3 31.5
08:20 1024 30.24 853 25.19 10.7 51.3 47 -0.2 31.6
08:25 1024 30.24 853 25.19 11.3 52.4 45 -0.3 31.5
08:30 1024 30.24 853 25.19 11.9 53.4 42 -0.4 31.3
08:35 1024 30.24 853 25.19 11.9 53.5 42 -0.4 31.3
08:40 1024 30.24 853 25.19 12.4 54.4 40 -0.8 30.6
08:45 1024 30.24 853 25.19 12.8 55.1 40 -0.4 31.3
08:50 1024 30.24 853 25.19 12.1 53.7 42 -0.3 31.4
08:55 1024 30.24 853 25.19 12.3 54.1 40 -0.8 30.6
09:00 1024 30.24 853 25.19 12.2 54 41 -0.6 31
09:05 1024 30.24 853 25.19 12.4 54.4 42 0.1 32.1
09:10 1024 30.24 853 25.19 12.4 54.2 41 -0.4 31.2
09:15 1024 30.24 853 25.19 12.5 54.4 41 -0.5 31.2
09:20 1024 30.24 853 25.19 13 55.4 40 -0.3 31.5
09:25 1024 30.24 853 25.19 13.4 56.1 39 -0.2 31.6
09:30 1024 30.24 853 25.19 12.9 55.3 39 -0.7 30.8
09:35 1024 30.24 853 25.19 13.5 56.3 38 -0.4 31.2
09:40 1024 30.24 853 25.19 13.4 56.1 40 0.2 32.4
09:45 1024 30.24 853 25.19 12.9 55.1 41 0 32
09:50 1024 30.24 853 25.19 13.4 56.2 39 -0.1 31.8
09:55 1024 30.24 853 25.19 13.9 57 37 -0.6 31
10:00 1024 30.24 853 25.19 14.1 57.5 37 -0.4 31.3
10:05 1024 30.24 853 25.19 13.6 56.5 38 -0.5 31.1
10:10 1024 30.24 853 25.19 14.4 57.8 34 -1.2 29.8
10:15 1024 30.24 853 25.19 14.8 58.6 33 -1.3 29.7
10:20 1024 30.24 853 25.19 14.8 58.6 34 -0.8 30.6
10:25 1024 30.24 853 25.19 14.9 58.8 33 -1.2 29.8
10:30 1024 30.24 853 25.19 14.6 58.3 34 -1.2 29.9
10:35 1024 30.24 853 25.19 13.8 56.9 37 -0.7 30.8
10:40 1024 30.24 853 25.19 14.6 58.2 34 -1.1 30.1
10:45 1024 30.24 853 25.19 14.9 58.7 34 -0.6 30.9
10:50 1023 30.21 853 25.19 14.4 57.9 36 -0.5 31.2
10:55 1023 30.21 853 25.19 14.2 57.5 36 -0.7 30.7
11:00 1023 30.21 853 25.19 14.2 57.6 33 -1.7 29
11:05 1023 30.21 852 25.16 15.8 60.5 32 -0.9 30.4
11:10 1023 30.21 852 25.16 16.9 62.4 31 -0.4 31.3
11:15 1023 30.21 852 25.16 16.7 62.1 30 -1 30.2
11:20 1023 30.21 852 25.16 16.2 61.2 32 -0.5 31.2
11:25 1023 30.21 852 25.16 16.5 61.8 30 -0.8 30.5
11:30 1023 30.21 852 25.16 16.8 62.3 30 -0.7 30.8
11:35 1023 30.21 852 25.16 16.9 62.4 29 -1 30.1
11:40 1023 30.21 852 25.16 17.2 63 29 -0.7 30.7
11:45 1023 30.21 852 25.16 17 62.7 30 -0.5 31.2
11:50 1023 30.21 852 25.16 16.9 62.5 30 -0.8 30.5
11:55 1023 30.21 852 25.16 17.7 63.9 28 -1 30.2
12:00 1022 30.18 852 25.16 18 64.3 28 -0.7 30.7
12:05 1022 30.18 852 25.16 18.2 64.8 28 -0.4 31.3
12:10 1022 30.18 851 25.13 18.3 64.9 29 0.1 32.1
12:15 1022 30.18 851 25.13 17.7 63.9 27 -1.2 29.8
12:20 1022 30.18 851 25.13 17.8 64.1 29 -0.5 31.2
12:25 1022 30.18 851 25.13 17.7 63.9 27 -1.3 29.7
12:30 1022 30.18 851 25.13 18.6 65.5 27 -0.7 30.8
12:35 1022 30.18 851 25.13 18.1 64.7 27 -1.1 30
12:40 1022 30.18 851 25.13 18.3 64.9 28 -0.2 31.6
12:45 1022 30.18 851 25.13 19.1 66.4 26 -0.7 30.8
12:50 1022 30.18 851 25.13 19.3 66.7 25 -1 30.2
12:55 1022 30.18 851 25.13 18.9 66 28 -0 32
13:00 1022 30.18 851 25.13 18.8 65.8 26 -0.9 30.5
13:05 1022 30.18 851 25.13 19.4 66.9 26 -0.5 31
13:10 1022 30.18 851 25.13 19.7 67.4 24 -1.1 30
13:15 1021 30.15 851 25.13 19.3 66.8 25 -1.2 29.8
13:20 1021 30.15 851 25.13 19.7 67.4 26 0 32
13:25 1021 30.15 851 25.13 19.4 67 25 -1.1 30.1
13:30 1021 30.15 851 25.13 19.2 66.5 24 -1.6 29.2
13:35 1021 30.15 851 25.13 20.1 68.2 23 -1.4 29.5
13:40 1021 30.15 851 25.13 20.3 68.6 23 -1.2 29.9
13:45 1021 30.15 851 25.13 20.4 68.6 23 -1.1 30.1
13:50 1021 30.15 851 25.13 20.3 68.5 23 -1.1 29.9
13:55 1021 30.15 850 25.1 20.6 69.2 22 -1.6 29.1
14:00 1021 30.15 850 25.1 20.6 69 24 -0.5 31.1
14:05 1021 30.15 850 25.1 19.9 67.8 25 -0.8 30.5
14:10 1021 30.15 850 25.1 20.3 68.5 25 -0.3 31.4
14:15 1021 30.15 850 25.1 19.4 67 25 -0.7 30.7
14:20 1021 30.15 850 25.1 20 68.1 24 -0.9 30.4
14:25 1021 30.15 850 25.1 20.3 68.6 23 -1.1 30.1
14:30 1021 30.15 850 25.1 20.6 69.1 24 -0.6 30.9
14:35 1021 30.15 850 25.1 20.7 69.3 23 -0.8 30.6
14:40 1021 30.15 850 25.1 20.5 68.8 24 -0.7 30.8
14:45 1021 30.15 850 25.1 20.3 68.6 24 -0.8 30.5
14:50 1021 30.15 850 25.1 20.4 68.6 23 -1.1 30.1
14:55 1021 30.15 850 25.1 20.7 69.2 22 -1.5 29.4
15:00 1021 30.15 850 25.1 20.7 69.2 22 -1.4 29.4
15:05 1021 30.15 850 25.1 20.3 68.5 21 -2.9 26.9
15:10 1021 30.15 850 25.1 20.1 68.2 21 -3 26.6
15:15 1021 30.15 850 25.1 20.1 68.2 19 -3.8 25.1
15:20 1021 30.15 850 25.1 20 67.9 18 -4.9 23.3
15:25 1021 30.15 850 25.1 19.9 67.8 18 -4.6 23.7
15:30 1021 30.15 850 25.1 19.9 67.9 19 -4.4 24.1
15:35 1021 30.15 850 25.1 20.1 68.2 19 -4 24.8
15:40 1021 30.15 850 25.1 20 67.9 19 -4.5 23.9
15:45 1021 30.15 850 25.1 19.9 67.7 19 -4.4 24.1
15:50 1021 30.15 850 25.1 20 68.1 19 -4.1 24.6
15:55 1020 30.12 850 25.1 20 68.1 19 -4.3 24.3
16:00 1020 30.12 850 25.1 19.7 67.5 19 -4.1 24.6
16:05 1020 30.12 850 25.1 19.7 67.5 19 -4.3 24.3
16:10 1020 30.12 850 25.1 20 68 18 -4.6 23.7
16:15 1020 30.12 850 25.1 20.1 68.1 18 -4.7 23.6
16:20 1020 30.12 850 25.1 20.1 68.1 19 -4.5 23.9
16:25 1020 30.12 850 25.1 20 67.9 19 -4.1 24.6
16:30 1020 30.12 850 25.1 20.1 68.2 19 -4.2 24.4
16:35 1020 30.12 850 25.1 19.6 67.2 20 -3.6 25.5
16:40 1020 30.12 850 25.1 19.3 66.8 19 -4.5 23.8
16:45 1020 30.12 850 25.1 19.4 67 18 -5.1 22.9
16:50 1020 30.12 849 25.07 19.6 67.2 19 -4.4 24.1
16:55 1020 30.12 849 25.07 19.4 67 19 -4.4 24.1
17:00 1020 30.12 849 25.07 19.2 66.5 20 -4.4 24.1
17:05 1020 30.12 849 25.07 19.4 66.8 21 -3.5 25.7
17:10 1020 30.12 849 25.07 19.5 67.1 19 -4.6 23.7
17:15 1020 30.12 849 25.07 19.5 67.2 20 -3.6 25.5
17:20 1020 30.12 849 25.07 19.7 67.4 19 -4.7 23.5
17:25 1020 30.12 849 25.07 19.8 67.6 19 -4.4 24
17:30 1020 30.12 849 25.07 19.8 67.7 19 -4.3 24.2
17:35 1020 30.12 849 25.07 19.8 67.6 18 -5.1 22.9
17:40 1020 30.12 849 25.07 19.6 67.2 18 -5.1 22.9
17:45 1020 30.12 849 25.07 19.4 67 18 -5.1 22.8
17:50 1020 30.12 849 25.07 19.4 66.9 20 -4.1 24.6
17:55 1020 30.12 849 25.07 19.4 66.8 19 -4.5 24
18:00 1020 30.12 849 25.07 19.1 66.5 19 -4.6 23.8
18:05 1020 30.12 849 25.07 19 66.1 20 -4.1 24.6
18:10 1020 30.12 849 25.07 18.8 65.8 20 -4.3 24.2
18:15 1020 30.12 849 25.07 18.7 65.7 23 -2.5 27.5
18:20 1020 30.12 849 25.07 18.5 65.4 22 -3.3 26
18:25 1020 30.12 849 25.07 18.3 65 23 -3.3 26
18:30 1020 30.12 849 25.07 18.2 64.7 23 -3.1 26.5
18:35 1020 30.12 849 25.07 18 64.4 24 -2.6 27.3
18:40 1020 30.12 849 25.07 17.9 64.2 25 -2.5 27.6
18:45 1020 30.12 849 25.07 17.6 63.8 27 -1.4 29.4
18:50 1020 30.12 849 25.07 17.2 63 32 0.4 32.8
18:55 1020 30.12 849 25.07 16.4 61.6 33 0 32.1
19:00 1020 30.12 849 25.07 15.8 60.4 33 -0.2 31.6
19:05 1020 30.12 849 25.07 15.4 59.6 33 -0.7 30.8
19:10 1020 30.12 849 25.07 15.2 59.3 33 -1.1 30.1
19:15 1020 30.12 849 25.07 14.9 58.9 34 -0.9 30.4
19:20 1020 30.12 849 25.07 14.6 58.3 35 -0.5 31.2
19:25 1020 30.12 849 25.07 14.3 57.8 37 -0 31.9
19:30 1020 30.12 849 25.07 14 57.2 38 0 32
19:35 1020 30.12 849 25.07 13.8 56.9 39 0 32
19:40 1020 30.12 850 25.1 13.7 56.6 38 -0.3 31.5
19:45 1020 30.12 850 25.1 13.6 56.4 38 -0.4 31.4
19:50 1020 30.12 850 25.1 13.5 56.3 38 -0.3 31.4
19:55 1020 30.12 850 25.1 13.6 56.4 39 -0.2 31.7
20:00 1020 30.12 850 25.1 13.6 56.5 38 -0.4 31.4
20:05 1020 30.12 850 25.1 13.6 56.5 40 0.5 32.9
20:10 1021 30.15 850 25.1 12.7 54.9 42 0.4 32.7
20:15 1021 30.15 850 25.1 12.3 54.1 42 -0.3 31.5
20:20 1021 30.15 850 25.1 12.5 54.5 37 -1.8 28.8
20:25 1021 30.15 850 25.1 12.8 55.1 37 -1.5 29.2
20:30 1021 30.15 850 25.1 12.5 54.6 38 -1.5 29.3
20:35 1021 30.15 850 25.1 12.6 54.7 35 -2.5 27.6
20:40 1021 30.15 850 25.1 12.8 55.1 35 -2.2 28.1
20:45 1021 30.15 850 25.1 12.8 55 34 -2.7 27.2
20:50 1021 30.15 850 25.1 13 55.3 32 -3.4 25.9
20:55 1021 30.15 850 25.1 13.3 56 32 -3.2 26.3
21:00 1021 30.15 850 25.1 13.6 56.5 30 -3.5 25.8
21:05 1021 30.15 850 25.1 13.7 56.7 31 -2.9 26.8
21:10 1021 30.15 850 25.1 13.5 56.3 33 -2.6 27.3
21:15 1021 30.15 850 25.1 13.7 56.6 32 -2.8 26.9
21:20 1021 30.15 850 25.1 13.7 56.6 32 -2.7 27.1
21:25 1021 30.15 850 25.1 13.4 56.2 32 -3 26.5
21:30 1021 30.15 850 25.1 13.5 56.3 32 -3 26.6
21:35 1021 30.15 850 25.1 13.4 56.1 32 -3.1 26.5
21:40 1021 30.15 850 25.1 13.5 56.2 35 -1.8 28.7
21:45 1021 30.15 850 25.1 13.4 56.1 32 -2.7 27.1
21:50 1021 30.15 850 25.1 14 57.2 32 -2.4 27.7
21:55 1021 30.15 850 25.1 14.4 58 33 -1.6 29.2
22:00 1021 30.15 850 25.1 13.8 56.8 33 -2.2 28
22:05 1021 30.15 850 25.1 13.2 55.8 34 -2.4 27.8
22:10 1021 30.15 850 25.1 13 55.5 33 -2.9 26.8
22:15 1021 30.15 850 25.1 13.1 55.6 34 -2.5 27.5
22:20 1021 30.15 850 25.1 12.7 54.9 35 -2.2 28.1
22:25 1021 30.15 850 25.1 12.7 54.8 37 -1.6 29.1
22:30 1021 30.15 850 25.1 12.5 54.4 38 -1.4 29.5
22:35 1021 30.15 850 25.1 12.5 54.4 38 -1.3 29.7
22:40 1021 30.15 850 25.1 12.5 54.5 37 -1.9 28.6
22:45 1021 30.15 850 25.1 12.5 54.5 37 -1.8 28.8
22:50 1021 30.15 850 25.1 12.4 54.3 40 -0.8 30.6
22:55 1021 30.15 850 25.1 12.2 53.9 39 -1.4 29.4
23:00 1021 30.15 850 25.1 12 53.6 43 -0.3 31.5
23:05 1021 30.15 850 25.1 11.9 53.3 41 -1 30.3
23:10 1021 30.15 850 25.1 12.1 53.7 40 -0.9 30.3
23:15 1021 30.15 850 25.1 12 53.5 42 -0.5 31.1
23:20 1021 30.15 850 25.1 11.8 53.3 40 -1.2 29.9
23:25 1021 30.15 850 25.1 12 53.6 38 -1.6 29
23:30 1021 30.15 850 25.1 12.4 54.3 38 -1.3 29.6
23:35 1021 30.15 850 25.1 12.5 54.6 37 -1.7 29
23:40 1021 30.15 850 25.1 12.5 54.5 38 -1.5 29.2
23:45 1021 30.15 850 25.1 12.3 54.1 37 -1.9 28.5
23:50 1021 30.15 850 25.1 12.5 54.5 37 -1.6 29.2
23:55 1021 30.15 850 25.1 12.1 53.7 43 -0.1 31.9
24:00 1021 30.15 850 25.1 11.3 52.3 44 -0.6 30.9